createdAt,value
2022-10-14T00:02:22.058Z,12.10
2022-10-14T00:04:48.639Z,12.10
2022-10-14T00:07:15.240Z,12.10
2022-10-14T00:09:42.804Z,12.10
2022-10-14T00:12:09.504Z,12.10
2022-10-14T00:14:36.143Z,12.10
2022-10-14T00:17:02.756Z,12.10
2022-10-14T00:19:29.314Z,12.10
2022-10-14T00:21:55.943Z,12.10
2022-10-14T00:24:22.535Z,12.10
2022-10-14T00:26:49.151Z,12.20
2022-10-14T00:29:18.612Z,12.10
2022-10-14T00:31:45.444Z,12.10
2022-10-14T00:34:13.159Z,12.10
2022-10-14T00:36:40.550Z,12.10
2022-10-14T00:39:07.455Z,12.20
2022-10-14T00:41:34.523Z,12.10
2022-10-14T00:44:03.037Z,12.10
2022-10-14T00:46:31.087Z,12.10
2022-10-14T00:48:59.315Z,12.10
2022-10-14T00:51:26.114Z,12.10
2022-10-14T00:53:52.810Z,12.10
2022-10-14T00:56:22.288Z,12.10
2022-10-14T00:58:48.915Z,12.10
2022-10-14T01:01:15.607Z,12.10
2022-10-14T01:03:42.330Z,12.10
2022-10-14T01:06:17.889Z,12.10
2022-10-14T01:09:04.762Z,12.10
2022-10-14T01:11:34.504Z,12.10
2022-10-14T01:14:13.450Z,12.10
2022-10-14T01:16:46.824Z,12.10
2022-10-14T01:19:32.164Z,12.10
2022-10-14T01:22:22.143Z,12.10
2022-10-14T01:24:54.994Z,12.10
2022-10-14T01:27:40.093Z,12.10
2022-10-14T01:30:23.008Z,12.10
2022-10-14T01:32:55.844Z,12.00
2022-10-14T01:35:34.650Z,12.00
2022-10-14T01:38:04.459Z,12.00
2022-10-14T01:40:54.132Z,12.10
2022-10-14T01:43:22.434Z,12.10
2022-10-14T01:45:49.963Z,12.00
2022-10-14T01:48:18.137Z,12.00
2022-10-14T01:50:46.563Z,12.00
2022-10-14T01:53:15.328Z,12.00
2022-10-14T01:55:44.205Z,12.10
2022-10-14T01:58:12.398Z,12.10
2022-10-14T02:00:39.007Z,12.00
2022-10-14T02:03:05.684Z,12.00
2022-10-14T02:05:36.412Z,12.00
2022-10-14T02:08:11.923Z,12.00
2022-10-14T02:11:01.933Z,12.00
2022-10-14T02:13:48.023Z,12.00
2022-10-14T02:16:14.965Z,11.90
2022-10-14T02:18:48.403Z,11.90
2022-10-14T02:21:24.104Z,11.90
2022-10-14T02:23:54.127Z,11.90
2022-10-14T02:26:21.189Z,11.90
2022-10-14T02:28:48.545Z,11.90
2022-10-14T02:31:17.203Z,11.90
2022-10-14T02:33:45.263Z,11.90
2022-10-14T02:36:13.767Z,11.90
2022-10-14T02:38:40.903Z,11.90
2022-10-14T02:41:09.820Z,11.80
2022-10-14T02:43:36.425Z,11.90
2022-10-14T02:46:04.005Z,11.80
2022-10-14T02:48:30.745Z,11.80
2022-10-14T02:50:57.616Z,11.80
2022-10-14T02:53:24.339Z,11.80
2022-10-14T02:55:50.957Z,11.90
2022-10-14T02:58:17.579Z,11.80
2022-10-14T03:00:44.197Z,11.80
2022-10-14T03:03:11.106Z,11.80
2022-10-14T03:05:37.713Z,11.80
2022-10-14T03:08:04.385Z,11.80
2022-10-14T03:10:30.982Z,11.80
2022-10-14T03:12:57.598Z,11.80
2022-10-14T03:15:24.178Z,11.80
2022-10-14T03:17:50.898Z,11.80
2022-10-14T03:20:17.575Z,11.80
2022-10-14T03:22:44.155Z,11.80
2022-10-14T03:25:11.432Z,11.80
2022-10-14T03:27:38.018Z,11.90
2022-10-14T03:30:04.848Z,11.90
2022-10-14T03:32:31.457Z,11.90
2022-10-14T03:34:58.072Z,11.90
2022-10-14T03:37:24.812Z,11.90
2022-10-14T03:39:51.465Z,11.90
2022-10-14T03:42:18.157Z,11.90
2022-10-14T03:44:46.161Z,11.90
2022-10-14T03:47:12.793Z,11.90
2022-10-14T03:49:39.403Z,11.90
2022-10-14T03:52:05.982Z,11.90
2022-10-14T03:54:32.628Z,11.90
2022-10-14T03:56:59.259Z,11.90
2022-10-14T03:59:25.884Z,11.90
2022-10-14T04:01:52.603Z,11.90
2022-10-14T04:04:19.250Z,11.90
2022-10-14T04:06:45.827Z,11.90
2022-10-14T04:09:12.521Z,12.00
2022-10-14T04:11:39.154Z,12.00
2022-10-14T04:14:05.741Z,12.00
2022-10-14T04:16:32.424Z,11.90
2022-10-14T04:18:59.033Z,12.00
2022-10-14T04:21:25.644Z,11.90
2022-10-14T04:23:52.231Z,11.90
2022-10-14T04:26:18.977Z,12.00
2022-10-14T04:28:45.927Z,12.00
2022-10-14T04:31:12.578Z,11.90
2022-10-14T04:33:39.331Z,11.90
2022-10-14T04:36:06.451Z,11.90
2022-10-14T04:38:33.755Z,11.90
2022-10-14T04:41:00.425Z,11.90
2022-10-14T04:43:27.064Z,11.90
2022-10-14T04:45:54.410Z,11.90
2022-10-14T04:48:21.379Z,11.90
2022-10-14T04:50:50.259Z,11.90
2022-10-14T04:53:21.774Z,11.90
2022-10-14T04:55:49.610Z,11.90
2022-10-14T04:58:16.883Z,11.80
2022-10-14T05:00:43.887Z,11.80
2022-10-14T05:03:10.653Z,11.80
2022-10-14T05:05:37.264Z,11.80
2022-10-14T05:08:04.123Z,11.80
2022-10-14T05:10:30.831Z,11.80
2022-10-14T05:12:57.471Z,11.80
2022-10-14T05:15:24.224Z,11.80
2022-10-14T05:17:50.807Z,11.70
2022-10-14T05:20:17.435Z,11.80
2022-10-14T05:22:45.473Z,11.70
2022-10-14T05:25:12.163Z,11.80
2022-10-14T05:27:39.116Z,11.80
2022-10-14T05:30:05.923Z,11.80
2022-10-14T05:32:32.532Z,11.70
2022-10-14T05:34:59.152Z,11.70
2022-10-14T05:37:25.848Z,11.70
2022-10-14T05:39:52.467Z,11.70
2022-10-14T05:42:19.344Z,11.70
2022-10-14T05:44:46.199Z,11.70
2022-10-14T05:47:12.932Z,11.70
2022-10-14T05:49:39.562Z,11.80
2022-10-14T05:52:06.473Z,11.80
2022-10-14T05:54:33.166Z,11.80
2022-10-14T05:56:59.780Z,11.80
2022-10-14T05:59:26.440Z,11.80
2022-10-14T06:01:53.020Z,11.80
2022-10-14T06:04:20.541Z,11.80
2022-10-14T06:06:47.184Z,11.80
2022-10-14T06:09:13.944Z,11.80
2022-10-14T06:11:40.666Z,11.80
2022-10-14T06:14:07.559Z,11.80
2022-10-14T06:16:34.193Z,11.90
2022-10-14T06:19:00.975Z,11.90
2022-10-14T06:21:27.651Z,12.00
2022-10-14T06:23:54.275Z,12.00
2022-10-14T06:26:20.959Z,12.00
2022-10-14T06:28:47.634Z,12.10
2022-10-14T06:31:14.349Z,12.20
2022-10-14T06:33:41.356Z,12.20
2022-10-14T06:36:08.143Z,12.30
2022-10-14T06:38:34.783Z,12.40
2022-10-14T06:41:01.635Z,12.40
2022-10-14T06:43:28.267Z,12.50
2022-10-14T06:45:56.835Z,12.70
2022-10-14T06:48:23.449Z,12.70
2022-10-14T06:50:50.023Z,12.80
2022-10-14T06:53:16.703Z,12.90
2022-10-14T06:55:43.324Z,12.90
2022-10-14T06:58:09.900Z,13.00
2022-10-14T07:00:37.370Z,13.00
2022-10-14T07:03:04.198Z,13.10
2022-10-14T07:05:30.919Z,13.30
2022-10-14T07:07:58.205Z,13.50
2022-10-14T07:10:24.879Z,13.70
2022-10-14T07:12:55.568Z,13.70
2022-10-14T07:15:22.603Z,13.80
2022-10-14T07:17:49.228Z,13.80
2022-10-14T07:20:15.936Z,13.90
2022-10-14T07:22:42.763Z,14.00
2022-10-14T07:25:09.587Z,14.10
2022-10-14T07:27:36.609Z,14.20
2022-10-14T07:30:04.275Z,14.30
2022-10-14T07:32:31.120Z,14.40
2022-10-14T07:34:57.691Z,14.60
2022-10-14T07:37:24.636Z,14.70
2022-10-14T07:39:51.619Z,15.00
2022-10-14T07:42:18.307Z,15.20
2022-10-14T07:44:45.818Z,15.50
2022-10-14T07:47:13.117Z,15.70
2022-10-14T07:49:39.716Z,15.90
2022-10-14T07:52:06.354Z,16.00
2022-10-14T07:54:33.123Z,16.20
2022-10-14T07:56:59.808Z,16.40
2022-10-14T07:59:26.403Z,16.50
2022-10-14T08:01:53.823Z,16.70
2022-10-14T08:04:20.490Z,16.70
2022-10-14T08:06:48.174Z,16.70
2022-10-14T08:09:14.925Z,16.70
2022-10-14T08:11:42.783Z,16.60
2022-10-14T08:14:09.463Z,16.50
2022-10-14T08:16:36.868Z,16.30
2022-10-14T08:19:10.936Z,16.20
2022-10-14T08:21:41.447Z,16.10
2022-10-14T08:24:08.428Z,16.10
2022-10-14T08:26:38.957Z,16.20
2022-10-14T08:29:07.155Z,16.30
2022-10-14T08:31:34.005Z,16.50
2022-10-14T08:34:00.823Z,16.90
2022-10-14T08:36:27.440Z,18.00
2022-10-14T08:38:54.470Z,19.50
2022-10-14T08:41:23.171Z,21.10
2022-10-14T08:43:52.724Z,22.80
2022-10-14T08:46:22.320Z,24.40
2022-10-14T08:48:49.036Z,26.00
2022-10-14T08:51:17.440Z,27.30
2022-10-14T08:53:46.022Z,28.60
2022-10-14T08:56:13.307Z,29.70
2022-10-14T08:58:41.394Z,30.90
2022-10-14T09:01:26.467Z,31.90
2022-10-14T09:03:56.571Z,32.70
2022-10-14T09:06:27.587Z,33.40
2022-10-14T09:09:00.235Z,33.80
2022-10-14T09:11:32.088Z,33.50
2022-10-14T09:14:01.800Z,32.50
2022-10-14T09:16:33.143Z,30.90
2022-10-14T09:19:00.865Z,29.40
2022-10-14T09:21:40.618Z,28.00
2022-10-14T09:24:17.399Z,27.10
2022-10-14T09:26:45.201Z,26.40
2022-10-14T09:29:18.059Z,25.90
2022-10-14T09:31:44.734Z,25.40
2022-10-14T09:34:20.391Z,24.90
2022-10-14T09:36:49.213Z,24.30
2022-10-14T09:39:16.212Z,23.80
2022-10-14T09:41:43.604Z,23.30
2022-10-14T09:44:13.195Z,22.70
2022-10-14T09:46:39.880Z,22.10
2022-10-14T09:49:13.263Z,21.60
2022-10-14T09:51:42.270Z,21.20
2022-10-14T09:54:20.209Z,20.70
2022-10-14T09:56:49.528Z,20.30
2022-10-14T09:59:20.403Z,20.00
2022-10-14T10:01:51.043Z,19.90
2022-10-14T10:04:33.008Z,19.80
2022-10-14T10:07:01.118Z,19.70
2022-10-14T10:09:27.800Z,19.60
2022-10-14T10:11:55.158Z,19.60
2022-10-14T10:14:33.032Z,19.60
2022-10-14T10:17:09.744Z,19.60
2022-10-14T10:19:43.044Z,19.40
2022-10-14T10:25:01.122Z,19.10
2022-10-14T10:27:36.135Z,19.00
2022-10-14T10:30:24.582Z,19.00
2022-10-14T10:32:51.150Z,19.00
2022-10-14T10:35:17.707Z,18.90
2022-10-14T10:37:58.195Z,18.80
2022-10-14T10:40:32.077Z,18.80
2022-10-14T10:43:13.311Z,18.80
2022-10-14T10:45:55.523Z,18.80
2022-10-14T10:48:29.437Z,18.80
2022-10-14T10:51:02.251Z,18.90
2022-10-14T10:53:38.249Z,18.80
2022-10-14T10:56:05.149Z,18.80
2022-10-14T10:58:41.115Z,18.80
2022-10-14T11:01:27.066Z,18.80
2022-10-14T11:03:56.898Z,18.90
2022-10-14T11:06:45.201Z,19.20
2022-10-14T11:09:35.288Z,19.40
2022-10-14T11:12:15.704Z,19.50
2022-10-14T11:14:54.666Z,19.50
2022-10-14T11:17:28.686Z,19.40
2022-10-14T11:20:16.391Z,19.40
2022-10-14T11:22:48.925Z,19.40
2022-10-14T11:25:18.823Z,19.40
2022-10-14T11:27:52.139Z,19.30
2022-10-14T11:30:44.994Z,19.30
2022-10-14T11:33:20.737Z,19.30
2022-10-14T11:35:53.403Z,19.30
2022-10-14T11:38:38.779Z,19.30
2022-10-14T11:41:08.356Z,19.40
2022-10-14T11:43:50.863Z,19.60
2022-10-14T11:46:26.556Z,19.80
2022-10-14T11:49:01.588Z,19.90
2022-10-14T11:51:34.856Z,20.10
2022-10-14T11:54:11.342Z,20.20
2022-10-14T11:56:38.101Z,20.30
2022-10-14T11:59:19.514Z,20.40
2022-10-14T12:01:48.150Z,20.50
2022-10-14T12:04:18.724Z,20.60
2022-10-14T12:06:52.727Z,20.60
2022-10-14T12:09:32.808Z,20.70
2022-10-14T12:12:02.524Z,20.70
2022-10-14T12:14:32.299Z,20.70
2022-10-14T12:17:00.019Z,20.70
2022-10-14T12:19:28.416Z,20.60
2022-10-14T12:22:15.303Z,20.50
2022-10-14T12:24:43.434Z,20.40
2022-10-14T12:27:11.535Z,20.40
2022-10-14T12:29:40.894Z,20.40
2022-10-14T12:32:17.446Z,20.40
2022-10-14T12:34:44.159Z,20.40
2022-10-14T12:37:29.179Z,20.40
2022-10-14T12:40:06.645Z,20.30
2022-10-14T12:42:35.950Z,20.30
2022-10-14T12:45:04.871Z,20.10
2022-10-14T12:47:35.020Z,20.10
2022-10-14T12:50:04.791Z,19.90
2022-10-14T12:52:36.563Z,19.80
2022-10-14T12:55:09.299Z,19.70
2022-10-14T12:57:40.067Z,19.70
2022-10-14T13:00:32.295Z,19.60
2022-10-14T13:03:02.939Z,19.50
2022-10-14T13:05:29.613Z,19.50
2022-10-14T13:08:15.106Z,19.40
2022-10-14T13:11:02.351Z,19.40
2022-10-14T13:13:38.172Z,19.40
2022-10-14T13:16:30.989Z,19.40
2022-10-14T13:18:58.366Z,19.40
2022-10-14T13:21:34.221Z,19.40
2022-10-14T13:24:02.252Z,19.50
2022-10-14T13:26:41.102Z,19.50
2022-10-14T13:29:20.021Z,19.60
2022-10-14T13:32:05.422Z,19.60
2022-10-14T13:34:31.995Z,19.60
2022-10-14T13:37:02.069Z,19.50
2022-10-14T13:39:31.411Z,19.30
2022-10-14T13:41:58.519Z,19.10
2022-10-14T13:44:25.757Z,18.90
2022-10-14T13:46:53.039Z,18.60
2022-10-14T13:49:22.293Z,18.50
2022-10-14T13:52:00.043Z,18.30
2022-10-14T13:54:28.071Z,18.20
2022-10-14T13:57:38.153Z,18.00
2022-10-14T14:00:19.199Z,17.90
2022-10-14T14:02:33.862Z,17.80
2022-10-14T14:05:01.425Z,17.60
2022-10-14T14:10:22.353Z,17.40
2022-10-14T14:12:49.835Z,17.20
2022-10-14T14:15:22.483Z,17.10
2022-10-14T14:17:49.435Z,16.90
2022-10-14T14:20:19.119Z,16.70
2022-10-14T14:22:45.715Z,16.60
2022-10-14T14:25:33.596Z,16.50
2022-10-14T14:28:05.880Z,16.40
2022-10-14T14:30:34.527Z,16.30
2022-10-14T14:33:02.642Z,16.10
2022-10-14T14:35:29.707Z,16.00
2022-10-14T14:37:56.881Z,16.00
2022-10-14T14:40:25.274Z,16.00
2022-10-14T14:42:57.538Z,15.90
2022-10-14T14:45:29.149Z,15.90
2022-10-14T14:48:02.598Z,15.90
2022-10-14T14:50:33.766Z,15.80
2022-10-14T14:53:04.840Z,15.80
2022-10-14T14:55:34.315Z,15.80
2022-10-14T14:58:01.851Z,15.80
2022-10-14T15:00:30.566Z,15.80
2022-10-14T15:03:01.520Z,15.80
2022-10-14T15:05:28.271Z,15.70
2022-10-14T15:07:56.033Z,15.70
2022-10-14T15:10:24.663Z,15.60
2022-10-14T15:12:52.971Z,15.60
2022-10-14T15:15:38.570Z,15.60
2022-10-14T15:18:11.638Z,15.50
2022-10-14T15:20:38.313Z,15.50
2022-10-14T15:23:23.948Z,15.50
2022-10-14T15:26:00.765Z,15.40
2022-10-14T15:28:31.699Z,15.40
2022-10-14T15:31:03.038Z,15.40
2022-10-14T15:33:32.479Z,15.40
2022-10-14T15:36:00.187Z,15.30
2022-10-14T15:38:27.216Z,15.20
2022-10-14T15:40:54.117Z,15.20
2022-10-14T15:43:25.032Z,15.20
2022-10-14T15:46:12.594Z,15.20
2022-10-14T15:48:40.409Z,15.20
2022-10-14T15:51:07.059Z,15.20
2022-10-14T15:53:33.979Z,15.20
2022-10-14T15:56:00.597Z,15.10
2022-10-14T15:58:27.230Z,15.10
2022-10-14T16:00:53.926Z,15.10
2022-10-14T16:03:20.691Z,15.10
2022-10-14T16:05:47.376Z,15.00
2022-10-14T16:08:14.608Z,15.00
2022-10-14T16:10:45.311Z,14.90
2022-10-14T16:13:11.965Z,14.90
2022-10-14T16:15:58.022Z,14.80
2022-10-14T16:18:25.752Z,14.80
2022-10-14T16:20:52.491Z,14.80
2022-10-14T16:23:19.802Z,14.70
2022-10-14T16:25:49.076Z,14.70
2022-10-14T16:28:16.432Z,14.60
2022-10-14T16:30:48.582Z,14.60
2022-10-14T16:33:19.638Z,14.60
2022-10-14T16:35:52.324Z,14.50
2022-10-14T16:38:19.142Z,14.50
2022-10-14T16:40:45.763Z,14.40
2022-10-14T16:43:12.373Z,14.40
2022-10-14T16:45:38.972Z,14.30
2022-10-14T16:48:05.891Z,14.20
2022-10-14T16:50:32.498Z,14.20
2022-10-14T16:53:17.844Z,14.10
2022-10-14T16:55:44.476Z,14.10
2022-10-14T16:58:12.246Z,14.00
2022-10-14T17:00:38.885Z,14.00
2022-10-14T17:03:05.501Z,14.00
2022-10-14T17:05:32.218Z,14.00
2022-10-14T17:07:58.839Z,14.00
2022-10-14T17:10:25.678Z,14.00
2022-10-14T17:12:54.650Z,14.00
2022-10-14T17:15:21.331Z,14.00
2022-10-14T17:17:47.959Z,14.00
2022-10-14T17:20:14.625Z,13.90
2022-10-14T17:22:41.951Z,13.90
2022-10-14T17:25:08.760Z,13.90
2022-10-14T17:27:35.380Z,13.90
2022-10-14T17:30:02.025Z,13.90
2022-10-14T17:32:28.752Z,13.80
2022-10-14T17:34:55.449Z,13.80
2022-10-14T17:37:22.195Z,13.80
2022-10-14T17:39:48.844Z,13.80
2022-10-14T17:42:15.492Z,13.80
2022-10-14T17:44:43.791Z,13.80
2022-10-14T17:47:10.818Z,13.80
2022-10-14T17:49:37.446Z,13.80
2022-10-14T17:52:06.165Z,13.80
2022-10-14T17:54:32.783Z,13.80
2022-10-14T17:56:59.372Z,13.90
2022-10-14T17:59:26.002Z,13.90
2022-10-14T18:02:08.104Z,13.90
2022-10-14T18:04:34.830Z,13.90
2022-10-14T18:07:01.590Z,13.90
2022-10-14T18:09:28.294Z,13.90
2022-10-14T18:12:10.581Z,13.80
2022-10-14T18:14:41.211Z,13.80
2022-10-14T18:17:10.616Z,13.80
2022-10-14T18:19:37.221Z,13.80
2022-10-14T18:22:03.958Z,13.80
2022-10-14T18:24:30.654Z,13.80
2022-10-14T18:26:57.275Z,13.80
2022-10-14T18:29:24.195Z,13.70
2022-10-14T18:34:17.681Z,13.70
2022-10-14T18:36:44.360Z,13.70
2022-10-14T18:39:11.695Z,13.70
2022-10-14T18:41:38.281Z,13.70
2022-10-14T18:44:05.766Z,13.60
2022-10-14T18:46:33.463Z,13.60
2022-10-14T18:49:00.879Z,13.70
2022-10-14T18:51:28.885Z,13.60
2022-10-14T18:54:00.278Z,13.60
2022-10-14T18:56:29.791Z,13.70
2022-10-14T18:58:57.826Z,13.70
2022-10-14T19:01:26.121Z,13.70
2022-10-14T19:03:53.164Z,13.70
2022-10-14T19:06:21.067Z,13.70
2022-10-14T19:08:48.334Z,13.70
2022-10-14T19:11:24.920Z,13.70
2022-10-14T19:13:53.593Z,13.70
2022-10-14T19:16:20.310Z,13.70
2022-10-14T19:18:47.509Z,13.70
2022-10-14T19:21:15.460Z,13.70
2022-10-14T19:23:43.340Z,13.70
2022-10-14T19:26:11.613Z,13.70
2022-10-14T19:28:38.400Z,13.70
2022-10-14T19:31:06.335Z,13.70
2022-10-14T19:33:34.771Z,13.70
2022-10-14T19:36:01.495Z,13.70
2022-10-14T19:38:28.207Z,13.70
2022-10-14T19:40:58.366Z,13.80
2022-10-14T19:43:25.096Z,13.70
2022-10-14T19:45:51.696Z,13.80
2022-10-14T19:48:18.450Z,13.80
2022-10-14T19:50:45.055Z,13.80
2022-10-14T19:53:11.695Z,13.80
2022-10-14T19:55:38.331Z,13.70
2022-10-14T19:58:05.527Z,13.80
2022-10-14T20:00:32.672Z,13.80
2022-10-14T20:02:59.801Z,13.80
2022-10-14T20:05:26.464Z,13.80
2022-10-14T20:07:54.515Z,13.80
2022-10-14T20:10:21.180Z,13.80
2022-10-14T20:12:47.800Z,13.80
2022-10-14T20:15:14.401Z,13.70
2022-10-14T20:17:40.984Z,13.70
2022-10-14T20:20:07.831Z,13.70
2022-10-14T20:22:34.743Z,13.70
2022-10-14T20:25:01.427Z,13.70
2022-10-14T20:27:27.999Z,13.70
2022-10-14T20:29:54.594Z,13.60
2022-10-14T20:32:21.165Z,13.60
2022-10-14T20:34:48.168Z,13.60
2022-10-14T20:37:14.760Z,13.60
2022-10-14T20:39:41.472Z,13.60
2022-10-14T20:42:08.556Z,13.50
2022-10-14T20:44:35.283Z,13.50
2022-10-14T20:47:01.882Z,13.50
2022-10-14T20:49:28.461Z,13.50
2022-10-14T20:51:55.223Z,13.50
2022-10-14T20:54:21.787Z,13.50
2022-10-14T20:56:49.070Z,13.50
2022-10-14T20:59:15.743Z,13.50
2022-10-14T21:01:42.495Z,13.40
2022-10-14T21:04:09.326Z,13.40
2022-10-14T21:06:36.298Z,13.40
2022-10-14T21:09:03.003Z,13.40
2022-10-14T21:11:29.643Z,13.40
2022-10-14T21:13:57.295Z,13.40
2022-10-14T21:16:28.904Z,13.50
2022-10-14T21:18:58.014Z,13.50
2022-10-14T21:21:25.900Z,13.50
2022-10-14T21:23:52.510Z,13.60
2022-10-14T21:26:19.075Z,13.60
2022-10-14T21:28:45.691Z,13.60
2022-10-14T21:31:14.796Z,13.60
2022-10-14T21:33:44.176Z,13.60
2022-10-14T21:36:12.014Z,13.60
2022-10-14T21:38:39.608Z,13.60
2022-10-14T21:41:06.759Z,13.60
2022-10-14T21:43:34.554Z,13.60
2022-10-14T21:46:05.308Z,13.60
2022-10-14T21:48:31.976Z,13.60
2022-10-14T21:51:16.016Z,13.60
2022-10-14T21:53:43.449Z,13.60
2022-10-14T21:56:10.543Z,13.60
2022-10-14T21:58:37.542Z,13.60
2022-10-14T22:01:08.700Z,13.60
2022-10-14T22:03:35.683Z,13.60
2022-10-14T22:08:37.863Z,13.60
2022-10-14T22:11:05.022Z,13.60
2022-10-14T22:13:32.120Z,13.60
2022-10-14T22:15:58.702Z,13.60
2022-10-14T22:18:25.430Z,13.60
2022-10-14T22:20:59.349Z,13.60
2022-10-14T22:23:25.959Z,13.60
2022-10-14T22:25:52.567Z,13.50
2022-10-14T22:28:19.198Z,13.50
2022-10-14T22:30:45.806Z,13.50
2022-10-14T22:33:12.432Z,13.50
2022-10-14T22:35:39.002Z,13.50
2022-10-14T22:38:05.593Z,13.50
2022-10-14T22:40:34.490Z,13.40
2022-10-14T22:43:01.151Z,13.40
2022-10-14T22:45:27.889Z,13.40
2022-10-14T22:47:54.691Z,13.40
2022-10-14T22:50:21.268Z,13.30
2022-10-14T22:52:47.924Z,13.40
2022-10-14T22:55:14.600Z,13.30
2022-10-14T22:57:41.182Z,13.30
2022-10-14T23:00:08.099Z,13.30
2022-10-14T23:02:34.793Z,13.20
2022-10-14T23:05:01.456Z,13.30
2022-10-14T23:07:29.235Z,13.20
2022-10-14T23:09:56.001Z,13.20
2022-10-14T23:12:22.873Z,13.20
2022-10-14T23:14:51.243Z,13.20
2022-10-14T23:17:17.894Z,13.10
2022-10-14T23:19:46.161Z,13.10
2022-10-14T23:22:12.750Z,13.10
2022-10-14T23:24:39.331Z,13.10
2022-10-14T23:27:05.973Z,13.10
2022-10-14T23:29:32.559Z,13.10
2022-10-14T23:31:59.198Z,13.10
2022-10-14T23:34:25.762Z,13.10
2022-10-14T23:36:52.439Z,13.10
2022-10-14T23:39:19.046Z,13.10
2022-10-14T23:41:45.732Z,13.10
2022-10-14T23:44:12.566Z,13.00
2022-10-14T23:46:39.160Z,13.00
2022-10-14T23:49:21.166Z,13.00
2022-10-14T23:51:51.995Z,13.00
2022-10-14T23:54:18.582Z,13.00
2022-10-14T23:56:45.175Z,13.00
2022-10-14T23:59:11.826Z,13.00
